sensor_id;sensor_type;location;lat;lon;timestamp;P1;durP1;ratioP1;P2;durP2;ratioP2
12567;SDS011;6349;50.904;6.136;2023-04-24T00:00:22;1.37;;;1.27;;
12567;SDS011;6349;50.904;6.136;2023-04-24T00:02:24;1.93;;;1.50;;
12567;SDS011;6349;50.904;6.136;2023-04-24T00:04:27;2.10;;;1.17;;
12567;SDS011;6349;50.904;6.136;2023-04-24T00:06:29;1.90;;;1.77;;
12567;SDS011;6349;50.904;6.136;2023-04-24T00:08:34;3.80;;;1.90;;
12567;SDS011;6349;50.904;6.136;2023-04-24T00:10:37;2.20;;;2.00;;
12567;SDS011;6349;50.904;6.136;2023-04-24T00:12:39;2.43;;;2.23;;
12567;SDS011;6349;50.904;6.136;2023-04-24T00:14:41;2.37;;;2.17;;
12567;SDS011;6349;50.904;6.136;2023-04-24T00:16:43;3.13;;;2.20;;
12567;SDS011;6349;50.904;6.136;2023-04-24T00:18:44;2.70;;;2.50;;
12567;SDS011;6349;50.904;6.136;2023-04-24T00:20:46;2.60;;;2.40;;
12567;SDS011;6349;50.904;6.136;2023-04-24T00:22:48;2.53;;;2.17;;
12567;SDS011;6349;50.904;6.136;2023-04-24T00:24:50;3.30;;;2.30;;
12567;SDS011;6349;50.904;6.136;2023-04-24T00:26:52;3.63;;;3.10;;
12567;SDS011;6349;50.904;6.136;2023-04-24T00:28:54;3.23;;;2.90;;
12567;SDS011;6349;50.904;6.136;2023-04-24T00:30:56;4.30;;;3.00;;
12567;SDS011;6349;50.904;6.136;2023-04-24T00:32:58;3.20;;;2.90;;
12567;SDS011;6349;50.904;6.136;2023-04-24T00:34:58;3.20;;;2.90;;
12567;SDS011;6349;50.904;6.136;2023-04-24T00:37:00;6.63;;;3.23;;
12567;SDS011;6349;50.904;6.136;2023-04-24T00:39:02;3.73;;;2.80;;
12567;SDS011;6349;50.904;6.136;2023-04-24T00:41:04;3.30;;;3.00;;
12567;SDS011;6349;50.904;6.136;2023-04-24T00:43:06;3.57;;;3.10;;
12567;SDS011;6349;50.904;6.136;2023-04-24T00:45:08;5.83;;;3.33;;
12567;SDS011;6349;50.904;6.136;2023-04-24T00:47:11;3.50;;;3.20;;
12567;SDS011;6349;50.904;6.136;2023-04-24T00:49:14;4.63;;;3.50;;
12567;SDS011;6349;50.904;6.136;2023-04-24T00:51:16;4.60;;;3.33;;
12567;SDS011;6349;50.904;6.136;2023-04-24T00:53:18;4.50;;;3.47;;
12567;SDS011;6349;50.904;6.136;2023-04-24T00:55:20;4.63;;;3.83;;
12567;SDS011;6349;50.904;6.136;2023-04-24T00:57:22;3.50;;;3.20;;
12567;SDS011;6349;50.904;6.136;2023-04-24T00:59:24;3.63;;;3.30;;
12567;SDS011;6349;50.904;6.136;2023-04-24T01:01:26;5.60;;;4.00;;
12567;SDS011;6349;50.904;6.136;2023-04-24T01:03:29;5.10;;;3.90;;
12567;SDS011;6349;50.904;6.136;2023-04-24T01:05:33;4.73;;;3.67;;
12567;SDS011;6349;50.904;6.136;2023-04-24T01:07:35;4.73;;;4.23;;
12567;SDS011;6349;50.904;6.136;2023-04-24T01:09:38;4.57;;;4.07;;
12567;SDS011;6349;50.904;6.136;2023-04-24T01:11:45;4.93;;;4.30;;
12567;SDS011;6349;50.904;6.136;2023-04-24T01:13:48;4.93;;;4.10;;
12567;SDS011;6349;50.904;6.136;2023-04-24T01:15:49;5.00;;;4.43;;
12567;SDS011;6349;50.904;6.136;2023-04-24T01:17:51;4.90;;;4.17;;
12567;SDS011;6349;50.904;6.136;2023-04-24T01:19:53;6.53;;;4.73;;
12567;SDS011;6349;50.904;6.136;2023-04-24T01:21:58;7.13;;;5.20;;
12567;SDS011;6349;50.904;6.136;2023-04-24T01:24:03;5.43;;;4.93;;
12567;SDS011;6349;50.904;6.136;2023-04-24T01:26:06;6.73;;;4.80;;
12567;SDS011;6349;50.904;6.136;2023-04-24T01:28:08;6.50;;;4.87;;
12567;SDS011;6349;50.904;6.136;2023-04-24T01:30:10;5.50;;;4.97;;
12567;SDS011;6349;50.904;6.136;2023-04-24T01:32:13;8.17;;;5.37;;
12567;SDS011;6349;50.904;6.136;2023-04-24T01:34:15;7.60;;;5.53;;
12567;SDS011;6349;50.904;6.136;2023-04-24T01:36:18;5.80;;;5.20;;
12567;SDS011;6349;50.904;6.136;2023-04-24T01:38:21;6.87;;;5.33;;
12567;SDS011;6349;50.904;6.136;2023-04-24T01:40:23;8.70;;;5.50;;
12567;SDS011;6349;50.904;6.136;2023-04-24T01:42:25;6.57;;;5.07;;
12567;SDS011;6349;50.904;6.136;2023-04-24T01:44:27;6.50;;;5.50;;
12567;SDS011;6349;50.904;6.136;2023-04-24T01:46:29;6.70;;;5.23;;
12567;SDS011;6349;50.904;6.136;2023-04-24T01:48:32;5.80;;;4.77;;
12567;SDS011;6349;50.904;6.136;2023-04-24T01:50:34;7.73;;;5.13;;
12567;SDS011;6349;50.904;6.136;2023-04-24T01:52:36;6.03;;;5.17;;
12567;SDS011;6349;50.904;6.136;2023-04-24T01:54:38;7.83;;;5.40;;
12567;SDS011;6349;50.904;6.136;2023-04-24T01:56:40;6.63;;;4.70;;
12567;SDS011;6349;50.904;6.136;2023-04-24T01:58:44;7.83;;;5.20;;
12567;SDS011;6349;50.904;6.136;2023-04-24T02:00:46;5.97;;;4.43;;
12567;SDS011;6349;50.904;6.136;2023-04-24T02:02:48;6.37;;;5.10;;
12567;SDS011;6349;50.904;6.136;2023-04-24T02:04:53;6.23;;;4.83;;
12567;SDS011;6349;50.904;6.136;2023-04-24T02:06:55;5.57;;;5.07;;
12567;SDS011;6349;50.904;6.136;2023-04-24T02:08:58;7.47;;;5.03;;
12567;SDS011;6349;50.904;6.136;2023-04-24T02:11:00;6.17;;;5.57;;
12567;SDS011;6349;50.904;6.136;2023-04-24T02:13:03;6.37;;;5.20;;
12567;SDS011;6349;50.904;6.136;2023-04-24T02:15:06;7.10;;;5.23;;
12567;SDS011;6349;50.904;6.136;2023-04-24T02:17:08;6.53;;;4.93;;
12567;SDS011;6349;50.904;6.136;2023-04-24T02:19:10;6.90;;;5.13;;
12567;SDS011;6349;50.904;6.136;2023-04-24T02:21:11;5.90;;;5.30;;
12567;SDS011;6349;50.904;6.136;2023-04-24T02:23:15;6.23;;;5.43;;
12567;SDS011;6349;50.904;6.136;2023-04-24T02:25:17;5.70;;;5.10;;
12567;SDS011;6349;50.904;6.136;2023-04-24T02:27:18;8.03;;;5.67;;
12567;SDS011;6349;50.904;6.136;2023-04-24T02:29:20;6.10;;;5.33;;
12567;SDS011;6349;50.904;6.136;2023-04-24T02:31:22;6.30;;;5.20;;
12567;SDS011;6349;50.904;6.136;2023-04-24T02:33:24;6.87;;;5.67;;
12567;SDS011;6349;50.904;6.136;2023-04-24T02:35:26;7.23;;;5.47;;
12567;SDS011;6349;50.904;6.136;2023-04-24T02:37:26;7.60;;;5.33;;
12567;SDS011;6349;50.904;6.136;2023-04-24T02:39:28;5.97;;;5.17;;
12567;SDS011;6349;50.904;6.136;2023-04-24T02:41:30;6.70;;;5.47;;
12567;SDS011;6349;50.904;6.136;2023-04-24T02:43:33;6.97;;;5.20;;
12567;SDS011;6349;50.904;6.136;2023-04-24T02:45:35;7.03;;;5.37;;
12567;SDS011;6349;50.904;6.136;2023-04-24T02:47:36;5.87;;;5.07;;
12567;SDS011;6349;50.904;6.136;2023-04-24T02:49:38;6.67;;;5.20;;
12567;SDS011;6349;50.904;6.136;2023-04-24T02:51:40;6.47;;;5.37;;
12567;SDS011;6349;50.904;6.136;2023-04-24T02:53:42;6.47;;;5.30;;
12567;SDS011;6349;50.904;6.136;2023-04-24T02:55:45;6.67;;;5.17;;
12567;SDS011;6349;50.904;6.136;2023-04-24T02:57:47;7.63;;;5.13;;
12567;SDS011;6349;50.904;6.136;2023-04-24T02:59:49;5.63;;;5.10;;
12567;SDS011;6349;50.904;6.136;2023-04-24T03:01:50;6.47;;;5.57;;
12567;SDS011;6349;50.904;6.136;2023-04-24T03:03:52;7.40;;;5.37;;
12567;SDS011;6349;50.904;6.136;2023-04-24T03:05:54;5.80;;;5.20;;
12567;SDS011;6349;50.904;6.136;2023-04-24T03:07:57;6.73;;;5.57;;
12567;SDS011;6349;50.904;6.136;2023-04-24T03:09:58;7.50;;;5.57;;
12567;SDS011;6349;50.904;6.136;2023-04-24T03:12:00;7.63;;;5.63;;
12567;SDS011;6349;50.904;6.136;2023-04-24T03:14:02;7.57;;;5.57;;
12567;SDS011;6349;50.904;6.136;2023-04-24T03:16:04;6.47;;;5.80;;
12567;SDS011;6349;50.904;6.136;2023-04-24T03:18:06;6.70;;;5.60;;
12567;SDS011;6349;50.904;6.136;2023-04-24T03:20:08;6.70;;;6.00;;
12567;SDS011;6349;50.904;6.136;2023-04-24T03:22:10;6.60;;;5.53;;
12567;SDS011;6349;50.904;6.136;2023-04-24T03:24:12;7.00;;;5.83;;
12567;SDS011;6349;50.904;6.136;2023-04-24T03:26:14;6.33;;;5.70;;
12567;SDS011;6349;50.904;6.136;2023-04-24T03:28:16;7.30;;;6.00;;
12567;SDS011;6349;50.904;6.136;2023-04-24T03:30:18;7.10;;;6.00;;
12567;SDS011;6349;50.904;6.136;2023-04-24T03:32:21;6.50;;;5.80;;
12567;SDS011;6349;50.904;6.136;2023-04-24T03:34:26;5.90;;;5.17;;
12567;SDS011;6349;50.904;6.136;2023-04-24T03:36:28;5.70;;;5.20;;
12567;SDS011;6349;50.904;6.136;2023-04-24T03:38:30;8.70;;;5.80;;
12567;SDS011;6349;50.904;6.136;2023-04-24T03:40:30;5.50;;;4.97;;
12567;SDS011;6349;50.904;6.136;2023-04-24T03:42:34;5.70;;;5.07;;
12567;SDS011;6349;50.904;6.136;2023-04-24T03:44:37;5.53;;;4.93;;
12567;SDS011;6349;50.904;6.136;2023-04-24T03:46:38;7.07;;;5.07;;
12567;SDS011;6349;50.904;6.136;2023-04-24T03:48:40;6.47;;;5.13;;
12567;SDS011;6349;50.904;6.136;2023-04-24T03:50:42;6.40;;;4.83;;
12567;SDS011;6349;50.904;6.136;2023-04-24T03:52:43;5.00;;;4.53;;
12567;SDS011;6349;50.904;6.136;2023-04-24T03:54:45;6.33;;;5.00;;
12567;SDS011;6349;50.904;6.136;2023-04-24T03:56:46;7.83;;;5.17;;
12567;SDS011;6349;50.904;6.136;2023-04-24T03:58:49;5.80;;;4.40;;
12567;SDS011;6349;50.904;6.136;2023-04-24T04:00:57;5.23;;;4.73;;
12567;SDS011;6349;50.904;6.136;2023-04-24T04:03:00;6.13;;;4.57;;
12567;SDS011;6349;50.904;6.136;2023-04-24T04:05:01;5.37;;;4.73;;
12567;SDS011;6349;50.904;6.136;2023-04-24T04:07:03;5.53;;;4.97;;
12567;SDS011;6349;50.904;6.136;2023-04-24T04:09:06;6.17;;;4.90;;
12567;SDS011;6349;50.904;6.136;2023-04-24T04:11:09;5.30;;;4.80;;
12567;SDS011;6349;50.904;6.136;2023-04-24T04:13:11;5.30;;;4.80;;
12567;SDS011;6349;50.904;6.136;2023-04-24T04:15:14;6.13;;;4.77;;
12567;SDS011;6349;50.904;6.136;2023-04-24T04:17:16;5.13;;;4.47;;
12567;SDS011;6349;50.904;6.136;2023-04-24T04:19:18;7.20;;;4.50;;
12567;SDS011;6349;50.904;6.136;2023-04-24T04:21:20;5.37;;;4.27;;
12567;SDS011;6349;50.904;6.136;2023-04-24T04:23:22;6.93;;;4.70;;
12567;SDS011;6349;50.904;6.136;2023-04-24T04:25:24;5.23;;;4.83;;
12567;SDS011;6349;50.904;6.136;2023-04-24T04:27:26;5.37;;;4.87;;
12567;SDS011;6349;50.904;6.136;2023-04-24T04:29:29;6.03;;;5.43;;
12567;SDS011;6349;50.904;6.136;2023-04-24T04:31:32;5.57;;;5.07;;
12567;SDS011;6349;50.904;6.136;2023-04-24T04:33:34;5.57;;;5.03;;
12567;SDS011;6349;50.904;6.136;2023-04-24T04:35:40;5.77;;;5.17;;
12567;SDS011;6349;50.904;6.136;2023-04-24T04:37:42;5.30;;;4.80;;
12567;SDS011;6349;50.904;6.136;2023-04-24T04:39:44;5.63;;;4.73;;
12567;SDS011;6349;50.904;6.136;2023-04-24T04:41:46;5.93;;;4.80;;
12567;SDS011;6349;50.904;6.136;2023-04-24T04:43:50;5.43;;;4.90;;
12567;SDS011;6349;50.904;6.136;2023-04-24T04:45:52;5.37;;;4.87;;
12567;SDS011;6349;50.904;6.136;2023-04-24T04:47:55;6.40;;;5.23;;
12567;SDS011;6349;50.904;6.136;2023-04-24T04:49:57;6.13;;;5.50;;
12567;SDS011;6349;50.904;6.136;2023-04-24T04:51:59;5.40;;;4.90;;
12567;SDS011;6349;50.904;6.136;2023-04-24T04:54:01;6.77;;;5.03;;
12567;SDS011;6349;50.904;6.136;2023-04-24T04:56:03;6.77;;;5.60;;
12567;SDS011;6349;50.904;6.136;2023-04-24T04:58:05;5.10;;;4.60;;
12567;SDS011;6349;50.904;6.136;2023-04-24T05:00:08;5.43;;;4.87;;
12567;SDS011;6349;50.904;6.136;2023-04-24T05:02:12;6.00;;;5.43;;
12567;SDS011;6349;50.904;6.136;2023-04-24T05:04:14;5.23;;;4.63;;
12567;SDS011;6349;50.904;6.136;2023-04-24T05:06:15;5.77;;;4.67;;
12567;SDS011;6349;50.904;6.136;2023-04-24T05:08:17;5.47;;;4.40;;
12567;SDS011;6349;50.904;6.136;2023-04-24T05:10:19;6.13;;;4.80;;
12567;SDS011;6349;50.904;6.136;2023-04-24T05:12:21;5.30;;;4.63;;
12567;SDS011;6349;50.904;6.136;2023-04-24T05:14:23;5.80;;;5.20;;
12567;SDS011;6349;50.904;6.136;2023-04-24T05:16:24;5.53;;;4.47;;
12567;SDS011;6349;50.904;6.136;2023-04-24T05:18:26;5.20;;;4.70;;
12567;SDS011;6349;50.904;6.136;2023-04-24T05:20:27;4.97;;;4.47;;
12567;SDS011;6349;50.904;6.136;2023-04-24T05:22:30;3.97;;;3.67;;
12567;SDS011;6349;50.904;6.136;2023-04-24T05:24:35;5.47;;;3.97;;
12567;SDS011;6349;50.904;6.136;2023-04-24T05:26:37;3.67;;;3.37;;
12567;SDS011;6349;50.904;6.136;2023-04-24T05:28:39;3.40;;;3.10;;
12567;SDS011;6349;50.904;6.136;2023-04-24T05:30:41;4.43;;;3.43;;
12567;SDS011;6349;50.904;6.136;2023-04-24T05:32:43;3.70;;;3.30;;
12567;SDS011;6349;50.904;6.136;2023-04-24T05:34:47;5.40;;;3.83;;
12567;SDS011;6349;50.904;6.136;2023-04-24T05:36:49;4.20;;;3.80;;
12567;SDS011;6349;50.904;6.136;2023-04-24T05:38:51;4.10;;;3.70;;
12567;SDS011;6349;50.904;6.136;2023-04-24T05:40:53;3.80;;;3.50;;
12567;SDS011;6349;50.904;6.136;2023-04-24T05:42:54;5.33;;;3.80;;
12567;SDS011;6349;50.904;6.136;2023-04-24T05:44:56;3.63;;;3.30;;
12567;SDS011;6349;50.904;6.136;2023-04-24T05:46:58;4.10;;;3.70;;
12567;SDS011;6349;50.904;6.136;2023-04-24T05:48:59;3.80;;;3.33;;
12567;SDS011;6349;50.904;6.136;2023-04-24T05:51:00;4.23;;;3.80;;
12567;SDS011;6349;50.904;6.136;2023-04-24T05:53:02;4.10;;;3.70;;
12567;SDS011;6349;50.904;6.136;2023-04-24T05:55:04;4.07;;;3.60;;
12567;SDS011;6349;50.904;6.136;2023-04-24T05:57:07;3.80;;;3.50;;
12567;SDS011;6349;50.904;6.136;2023-04-24T05:59:09;3.23;;;2.93;;
12567;SDS011;6349;50.904;6.136;2023-04-24T06:01:11;3.10;;;2.90;;
12567;SDS011;6349;50.904;6.136;2023-04-24T06:03:14;4.10;;;3.00;;
12567;SDS011;6349;50.904;6.136;2023-04-24T06:05:16;3.43;;;2.93;;
12567;SDS011;6349;50.904;6.136;2023-04-24T06:07:18;3.33;;;2.77;;
12567;SDS011;6349;50.904;6.136;2023-04-24T06:09:22;3.17;;;2.80;;
12567;SDS011;6349;50.904;6.136;2023-04-24T06:11:24;3.37;;;2.70;;
12567;SDS011;6349;50.904;6.136;2023-04-24T06:13:26;2.60;;;2.40;;
12567;SDS011;6349;50.904;6.136;2023-04-24T06:15:28;3.07;;;2.80;;
12567;SDS011;6349;50.904;6.136;2023-04-24T06:17:33;5.03;;;2.80;;
12567;SDS011;6349;50.904;6.136;2023-04-24T06:19:35;3.20;;;2.70;;
12567;SDS011;6349;50.904;6.136;2023-04-24T06:21:36;3.60;;;2.70;;
12567;SDS011;6349;50.904;6.136;2023-04-24T06:23:38;3.37;;;2.90;;
12567;SDS011;6349;50.904;6.136;2023-04-24T06:25:40;3.27;;;2.93;;
12567;SDS011;6349;50.904;6.136;2023-04-24T06:27:42;3.73;;;3.17;;
12567;SDS011;6349;50.904;6.136;2023-04-24T06:29:44;3.63;;;3.00;;
12567;SDS011;6349;50.904;6.136;2023-04-24T06:31:54;3.57;;;3.13;;
12567;SDS011;6349;50.904;6.136;2023-04-24T06:33:56;3.20;;;2.90;;
12567;SDS011;6349;50.904;6.136;2023-04-24T06:35:58;3.20;;;2.80;;
12567;SDS011;6349;50.904;6.136;2023-04-24T06:38:00;3.73;;;3.17;;
12567;SDS011;6349;50.904;6.136;2023-04-24T06:40:01;2.70;;;2.50;;
12567;SDS011;6349;50.904;6.136;2023-04-24T06:42:03;2.30;;;2.10;;
12567;SDS011;6349;50.904;6.136;2023-04-24T06:44:05;2.00;;;1.80;;
12567;SDS011;6349;50.904;6.136;2023-04-24T06:46:07;2.30;;;2.00;;
12567;SDS011;6349;50.904;6.136;2023-04-24T06:48:09;2.20;;;2.00;;
12567;SDS011;6349;50.904;6.136;2023-04-24T06:50:11;2.17;;;1.80;;
12567;SDS011;6349;50.904;6.136;2023-04-24T06:52:13;2.10;;;1.53;;
12567;SDS011;6349;50.904;6.136;2023-04-24T06:54:13;2.17;;;1.97;;
12567;SDS011;6349;50.904;6.136;2023-04-24T06:56:15;3.23;;;1.90;;
12567;SDS011;6349;50.904;6.136;2023-04-24T06:58:17;2.00;;;1.80;;
12567;SDS011;6349;50.904;6.136;2023-04-24T07:00:19;1.90;;;1.80;;
12567;SDS011;6349;50.904;6.136;2023-04-24T07:02:21;2.20;;;2.00;;
12567;SDS011;6349;50.904;6.136;2023-04-24T07:04:23;2.10;;;1.90;;
12567;SDS011;6349;50.904;6.136;2023-04-24T07:06:26;1.63;;;1.53;;
12567;SDS011;6349;50.904;6.136;2023-04-24T07:08:28;2.63;;;1.90;;
12567;SDS011;6349;50.904;6.136;2023-04-24T07:10:32;1.90;;;1.80;;
12567;SDS011;6349;50.904;6.136;2023-04-24T07:12:36;2.10;;;1.90;;
12567;SDS011;6349;50.904;6.136;2023-04-24T07:14:39;1.80;;;1.70;;
12567;SDS011;6349;50.904;6.136;2023-04-24T07:16:42;2.30;;;2.10;;
12567;SDS011;6349;50.904;6.136;2023-04-24T07:18:44;2.40;;;2.07;;
12567;SDS011;6349;50.904;6.136;2023-04-24T07:20:46;2.90;;;1.97;;
12567;SDS011;6349;50.904;6.136;2023-04-24T07:22:48;3.13;;;2.40;;
12567;SDS011;6349;50.904;6.136;2023-04-24T07:24:50;2.83;;;2.53;;
12567;SDS011;6349;50.904;6.136;2023-04-24T07:26:54;2.53;;;2.30;;
12567;SDS011;6349;50.904;6.136;2023-04-24T07:28:56;2.93;;;2.57;;
12567;SDS011;6349;50.904;6.136;2023-04-24T07:30:58;3.23;;;2.50;;
12567;SDS011;6349;50.904;6.136;2023-04-24T07:33:01;2.43;;;2.20;;
12567;SDS011;6349;50.904;6.136;2023-04-24T07:35:02;3.20;;;2.90;;
12567;SDS011;6349;50.904;6.136;2023-04-24T07:37:04;2.80;;;2.50;;
12567;SDS011;6349;50.904;6.136;2023-04-24T07:39:06;2.53;;;2.33;;
12567;SDS011;6349;50.904;6.136;2023-04-24T07:41:09;2.63;;;2.40;;
12567;SDS011;6349;50.904;6.136;2023-04-24T07:43:11;3.80;;;2.57;;
12567;SDS011;6349;50.904;6.136;2023-04-24T07:45:13;3.03;;;2.70;;
12567;SDS011;6349;50.904;6.136;2023-04-24T07:47:16;2.87;;;2.57;;
12567;SDS011;6349;50.904;6.136;2023-04-24T07:49:18;3.87;;;2.60;;
12567;SDS011;6349;50.904;6.136;2023-04-24T07:51:20;2.90;;;2.70;;
12567;SDS011;6349;50.904;6.136;2023-04-24T07:53:22;3.20;;;2.90;;
12567;SDS011;6349;50.904;6.136;2023-04-24T07:55:23;2.77;;;2.57;;
12567;SDS011;6349;50.904;6.136;2023-04-24T07:57:25;4.07;;;2.77;;
12567;SDS011;6349;50.904;6.136;2023-04-24T07:59:26;3.23;;;2.93;;
12567;SDS011;6349;50.904;6.136;2023-04-24T08:01:28;4.10;;;2.70;;
12567;SDS011;6349;50.904;6.136;2023-04-24T08:03:31;3.47;;;3.00;;
12567;SDS011;6349;50.904;6.136;2023-04-24T08:05:32;3.27;;;2.97;;
12567;SDS011;6349;50.904;6.136;2023-04-24T08:07:34;3.30;;;3.00;;
12567;SDS011;6349;50.904;6.136;2023-04-24T08:09:36;3.40;;;3.10;;
12567;SDS011;6349;50.904;6.136;2023-04-24T08:11:38;4.57;;;3.20;;
12567;SDS011;6349;50.904;6.136;2023-04-24T08:13:40;3.67;;;3.33;;
12567;SDS011;6349;50.904;6.136;2023-04-24T08:15:42;3.60;;;3.10;;
12567;SDS011;6349;50.904;6.136;2023-04-24T08:17:44;4.60;;;3.77;;
12567;SDS011;6349;50.904;6.136;2023-04-24T08:19:45;4.37;;;3.57;;
12567;SDS011;6349;50.904;6.136;2023-04-24T08:21:49;4.37;;;3.63;;
12567;SDS011;6349;50.904;6.136;2023-04-24T08:23:51;5.00;;;3.73;;
12567;SDS011;6349;50.904;6.136;2023-04-24T08:25:53;4.03;;;3.63;;
12567;SDS011;6349;50.904;6.136;2023-04-24T08:27:55;5.70;;;3.80;;
12567;SDS011;6349;50.904;6.136;2023-04-24T08:29:57;4.27;;;3.47;;
12567;SDS011;6349;50.904;6.136;2023-04-24T08:32:00;3.50;;;3.20;;
12567;SDS011;6349;50.904;6.136;2023-04-24T08:34:01;4.77;;;3.87;;
12567;SDS011;6349;50.904;6.136;2023-04-24T08:36:04;5.00;;;3.60;;
12567;SDS011;6349;50.904;6.136;2023-04-24T08:38:06;5.17;;;3.50;;
12567;SDS011;6349;50.904;6.136;2023-04-24T08:40:12;4.00;;;3.60;;
12567;SDS011;6349;50.904;6.136;2023-04-24T08:42:16;4.83;;;3.60;;
12567;SDS011;6349;50.904;6.136;2023-04-24T08:44:20;4.43;;;3.47;;
12567;SDS011;6349;50.904;6.136;2023-04-24T08:46:22;3.80;;;3.23;;
12567;SDS011;6349;50.904;6.136;2023-04-24T08:48:24;4.63;;;3.50;;
12567;SDS011;6349;50.904;6.136;2023-04-24T08:50:27;4.23;;;3.27;;
12567;SDS011;6349;50.904;6.136;2023-04-24T08:52:32;3.70;;;3.40;;
12567;SDS011;6349;50.904;6.136;2023-04-24T08:54:35;3.80;;;3.50;;
12567;SDS011;6349;50.904;6.136;2023-04-24T08:56:37;5.07;;;3.50;;
12567;SDS011;6349;50.904;6.136;2023-04-24T08:58:41;4.53;;;3.43;;
12567;SDS011;6349;50.904;6.136;2023-04-24T09:00:44;3.83;;;3.50;;
12567;SDS011;6349;50.904;6.136;2023-04-24T09:02:49;4.03;;;3.33;;
12567;SDS011;6349;50.904;6.136;2023-04-24T09:04:52;3.47;;;3.17;;
12567;SDS011;6349;50.904;6.136;2023-04-24T09:06:57;4.57;;;3.07;;
12567;SDS011;6349;50.904;6.136;2023-04-24T09:09:00;3.93;;;3.53;;
12567;SDS011;6349;50.904;6.136;2023-04-24T09:11:02;5.80;;;3.07;;
12567;SDS011;6349;50.904;6.136;2023-04-24T09:13:04;4.87;;;3.23;;
12567;SDS011;6349;50.904;6.136;2023-04-24T09:15:07;4.93;;;3.37;;
12567;SDS011;6349;50.904;6.136;2023-04-24T09:17:09;3.97;;;3.20;;
12567;SDS011;6349;50.904;6.136;2023-04-24T09:19:12;4.23;;;3.20;;
12567;SDS011;6349;50.904;6.136;2023-04-24T09:21:14;4.27;;;3.40;;
12567;SDS011;6349;50.904;6.136;2023-04-24T09:23:19;5.03;;;3.40;;
12567;SDS011;6349;50.904;6.136;2023-04-24T09:25:21;3.97;;;3.23;;
12567;SDS011;6349;50.904;6.136;2023-04-24T09:27:23;3.80;;;2.93;;
12567;SDS011;6349;50.904;6.136;2023-04-24T09:29:25;6.70;;;3.37;;
12567;SDS011;6349;50.904;6.136;2023-04-24T09:31:27;5.03;;;3.00;;
12567;SDS011;6349;50.904;6.136;2023-04-24T09:33:30;4.47;;;2.93;;
12567;SDS011;6349;50.904;6.136;2023-04-24T09:35:32;3.20;;;2.90;;
12567;SDS011;6349;50.904;6.136;2023-04-24T09:37:38;4.10;;;2.83;;
12567;SDS011;6349;50.904;6.136;2023-04-24T09:39:40;4.03;;;2.77;;
12567;SDS011;6349;50.904;6.136;2023-04-24T09:41:52;3.50;;;3.10;;
12567;SDS011;6349;50.904;6.136;2023-04-24T09:44:09;4.93;;;3.13;;
12567;SDS011;6349;50.904;6.136;2023-04-24T09:46:32;4.57;;;3.67;;
12567;SDS011;6349;50.904;6.136;2023-04-24T09:48:35;6.90;;;3.43;;
12567;SDS011;6349;50.904;6.136;2023-04-24T09:50:38;5.70;;;3.60;;
12567;SDS011;6349;50.904;6.136;2023-04-24T09:52:42;6.07;;;4.20;;
12567;SDS011;6349;50.904;6.136;2023-04-24T09:54:46;6.40;;;3.97;;
12567;SDS011;6349;50.904;6.136;2023-04-24T09:56:52;7.30;;;4.17;;
12567;SDS011;6349;50.904;6.136;2023-04-24T09:58:58;6.67;;;4.23;;
12567;SDS011;6349;50.904;6.136;2023-04-24T10:01:06;7.63;;;4.80;;
12567;SDS011;6349;50.904;6.136;2023-04-24T10:03:08;5.77;;;4.90;;
12567;SDS011;6349;50.904;6.136;2023-04-24T10:05:11;6.23;;;5.07;;
12567;SDS011;6349;50.904;6.136;2023-04-24T10:07:12;6.60;;;4.83;;
12567;SDS011;6349;50.904;6.136;2023-04-24T10:09:20;8.80;;;5.30;;
12567;SDS011;6349;50.904;6.136;2023-04-24T10:11:26;6.87;;;4.93;;
12567;SDS011;6349;50.904;6.136;2023-04-24T10:13:29;7.27;;;5.00;;
12567;SDS011;6349;50.904;6.136;2023-04-24T10:15:32;5.70;;;5.10;;
12567;SDS011;6349;50.904;6.136;2023-04-24T10:17:34;9.00;;;5.43;;
12567;SDS011;6349;50.904;6.136;2023-04-24T10:19:37;6.93;;;4.70;;
12567;SDS011;6349;50.904;6.136;2023-04-24T10:21:39;3.83;;;3.43;;
12567;SDS011;6349;50.904;6.136;2023-04-24T10:23:48;6.20;;;3.70;;
12567;SDS011;6349;50.904;6.136;2023-04-24T10:25:51;4.30;;;3.47;;
12567;SDS011;6349;50.904;6.136;2023-04-24T10:27:54;4.73;;;3.30;;
12567;SDS011;6349;50.904;6.136;2023-04-24T10:30:01;4.37;;;3.10;;
12567;SDS011;6349;50.904;6.136;2023-04-24T10:32:05;4.43;;;3.30;;
12567;SDS011;6349;50.904;6.136;2023-04-24T10:34:08;5.47;;;3.17;;
12567;SDS011;6349;50.904;6.136;2023-04-24T10:36:11;5.17;;;3.40;;
12567;SDS011;6349;50.904;6.136;2023-04-24T10:38:16;5.00;;;3.23;;
12567;SDS011;6349;50.904;6.136;2023-04-24T10:40:32;5.37;;;3.40;;
12567;SDS011;6349;50.904;6.136;2023-04-24T10:42:35;4.70;;;3.37;;
12567;SDS011;6349;50.904;6.136;2023-04-24T10:44:41;4.60;;;3.20;;
12567;SDS011;6349;50.904;6.136;2023-04-24T10:46:46;7.90;;;4.03;;
12567;SDS011;6349;50.904;6.136;2023-04-24T10:48:53;6.33;;;3.37;;
12567;SDS011;6349;50.904;6.136;2023-04-24T10:50:56;5.03;;;3.20;;
12567;SDS011;6349;50.904;6.136;2023-04-24T10:53:09;6.07;;;3.47;;
12567;SDS011;6349;50.904;6.136;2023-04-24T10:58:01;7.40;;;3.87;;
12567;SDS011;6349;50.904;6.136;2023-04-24T11:02:17;7.57;;;4.43;;
12567;SDS011;6349;50.904;6.136;2023-04-24T11:04:28;5.10;;;4.00;;
12567;SDS011;6349;50.904;6.136;2023-04-24T11:06:32;6.67;;;4.00;;
12567;SDS011;6349;50.904;6.136;2023-04-24T11:08:46;6.87;;;4.50;;
12567;SDS011;6349;50.904;6.136;2023-04-24T11:10:56;5.93;;;4.13;;
12567;SDS011;6349;50.904;6.136;2023-04-24T11:13:22;8.30;;;4.47;;
12567;SDS011;6349;50.904;6.136;2023-04-24T11:15:25;7.57;;;4.67;;
12567;SDS011;6349;50.904;6.136;2023-04-24T11:17:35;7.30;;;4.37;;
12567;SDS011;6349;50.904;6.136;2023-04-24T11:19:40;6.60;;;4.43;;
12567;SDS011;6349;50.904;6.136;2023-04-24T11:26:24;6.50;;;4.50;;
12567;SDS011;6349;50.904;6.136;2023-04-24T11:28:33;8.80;;;5.13;;
12567;SDS011;6349;50.904;6.136;2023-04-24T11:30:35;7.57;;;4.93;;
12567;SDS011;6349;50.904;6.136;2023-04-24T11:32:41;6.90;;;4.20;;
12567;SDS011;6349;50.904;6.136;2023-04-24T11:34:45;8.63;;;4.10;;
12567;SDS011;6349;50.904;6.136;2023-04-24T11:36:48;4.90;;;3.53;;
12567;SDS011;6349;50.904;6.136;2023-04-24T11:38:51;6.17;;;3.50;;
12567;SDS011;6349;50.904;6.136;2023-04-24T11:40:53;4.40;;;3.10;;
12567;SDS011;6349;50.904;6.136;2023-04-24T11:42:56;6.23;;;3.13;;
12567;SDS011;6349;50.904;6.136;2023-04-24T11:45:02;5.50;;;3.20;;
12567;SDS011;6349;50.904;6.136;2023-04-24T11:47:09;5.27;;;3.20;;
12567;SDS011;6349;50.904;6.136;2023-04-24T11:49:17;4.33;;;3.07;;
12567;SDS011;6349;50.904;6.136;2023-04-24T11:51:19;6.77;;;3.27;;
12567;SDS011;6349;50.904;6.136;2023-04-24T11:53:21;3.77;;;3.17;;
12567;SDS011;6349;50.904;6.136;2023-04-24T11:55:25;5.47;;;3.13;;
12567;SDS011;6349;50.904;6.136;2023-04-24T11:57:29;6.63;;;3.33;;
12567;SDS011;6349;50.904;6.136;2023-04-24T11:59:38;5.80;;;3.43;;
12567;SDS011;6349;50.904;6.136;2023-04-24T12:01:47;5.13;;;3.17;;
12567;SDS011;6349;50.904;6.136;2023-04-24T12:03:58;5.83;;;4.07;;
12567;SDS011;6349;50.904;6.136;2023-04-24T12:06:11;6.70;;;3.37;;
12567;SDS011;6349;50.904;6.136;2023-04-24T12:08:26;5.13;;;3.10;;
12567;SDS011;6349;50.904;6.136;2023-04-24T12:10:34;5.47;;;3.10;;
12567;SDS011;6349;50.904;6.136;2023-04-24T12:12:36;4.17;;;2.77;;
12567;SDS011;6349;50.904;6.136;2023-04-24T12:14:52;4.77;;;2.97;;
12567;SDS011;6349;50.904;6.136;2023-04-24T12:16:56;5.43;;;3.20;;
12567;SDS011;6349;50.904;6.136;2023-04-24T12:18:58;7.73;;;3.30;;
12567;SDS011;6349;50.904;6.136;2023-04-24T12:21:20;5.70;;;3.90;;
12567;SDS011;6349;50.904;6.136;2023-04-24T12:23:35;8.57;;;3.90;;
12567;SDS011;6349;50.904;6.136;2023-04-24T12:25:59;7.53;;;3.77;;
12567;SDS011;6349;50.904;6.136;2023-04-24T12:28:11;7.23;;;4.13;;
12567;SDS011;6349;50.904;6.136;2023-04-24T12:30:13;8.10;;;4.13;;
12567;SDS011;6349;50.904;6.136;2023-04-24T12:32:16;9.30;;;4.13;;
12567;SDS011;6349;50.904;6.136;2023-04-24T12:34:22;5.83;;;3.87;;
12567;SDS011;6349;50.904;6.136;2023-04-24T12:36:26;7.03;;;3.97;;
12567;SDS011;6349;50.904;6.136;2023-04-24T12:38:29;7.80;;;4.13;;
12567;SDS011;6349;50.904;6.136;2023-04-24T12:40:31;6.43;;;4.10;;
12567;SDS011;6349;50.904;6.136;2023-04-24T12:42:33;7.63;;;4.20;;